Cardville, ME (04418)

7:16 AM EDT on July 30, 2015 (GMT -0400)
Argyle Twp | | Change Station
CLOSE
Current Station
Personal Weather Station
Location: Argyle, ME
Elevation: 131 ft
Nearby Weather Stations

Elev 131 ft 45.11 °N, 68.66 °W | Updated 7 minutes ago

Clear
Clear
71.2 °F
Feels Like 72 °F
N
0.0
Wind Variable Wind from SW

Today
High -- | Low -- °F
--% Chance of Precip.
Yesterday
High -- | Low -- °F
Precip. -- in
5:17 AM 8:03 PM
Waxing Gibbous, 99% visible
Pressure 29.87 in
Visibility 6.0 miles
Clouds Few 15000 ft
Scattered Clouds 25000 ft
Heat Index 72 °F
Dew Point 64 °F
Humidity 78%
Rainfall 0.00 in
Snow Depth Not available.
UV 1 out of 12
Pollen 4.20 out of 12
Air Quality Not available.
Flu Activity Not available.
METAR KBGR 301053Z 00000KT 6SM BR FEW150 SCT250 20/18 A2988 RMK AO2 SLP114 T02000178

More Conditions Fewer Conditions

Pressure 29.87 in
Visibility 6.0 miles
Clouds Few 15000 ft
Scattered Clouds 25000 ft
Heat Index 72 °F
Dew Point 64 °F
Humidity 78%
Rainfall 0.00 in
Snow Depth Not available.
UV 1 out of 12
Pollen 4.20 out of 12
Air Quality Not available.
Flu Activity Not available.
METAR KBGR 301053Z 00000KT 6SM BR FEW150 SCT250 20/18 A2988 RMK AO2 SLP114 T02000178

More Conditions Fewer Conditions

10-Day Weather Forecast

×

Almanac

Astronomy

Jul. 30, 2015 Rise Set
Actual Time
Civil Twilight
Nautical Twilight
Astronomical Twilight
Moon
Length of Visible Light
Length of Day
Tomorrow will be .
, % of the Moon is Illuminated

Today's Extremes

State Highs State Lows

Community

WunderPhotos

Upload Photos

1,842,332 photos uploaded!

WunderBlogs® & News

Nearby

Air Quality

  Air Quality AQ Index Pollutant
Not available.

Snow Depth

Station Depth Elevation

Earthquake Activity

City Distance Mag. Time & Date
Minimum magnitude displayed is 2.5.

Coastal Water Temperatures

Place Temperature

Stations

Nearby Weather Stations

Station Location Temp. Windchill Dew Point Humidity Wind Precip. Elev Updated Type